LFLB/CMF METAR and TAF weather

Enter ICAO airport designator
Station Type Date Time Source
LFLB METAR 2022/05/24 12:00 UTC NOAA

LFLB 241200Z AUTO 02006KT 340V060 9999 OVC056 19/09 Q1011 NOSIG


Station Type Date Time Source
LFLB Decoded METAR 2022/05/24 12:00 UTC NOAA

Chambery / Aix-Les-Bains, France (LFLB) 45-39N 005-53E 239M
May 24, 2022 - 08:00 AM EDT / 2022.05.24 1200 UTC
Wind: from the NNE (020 degrees) at 7 MPH (6 KT) (direction variable):0
Visibility: greater than 7 mile(s):0
Sky conditions: overcast
Temperature: 66 F (19 C)
Dew Point: 48 F (9 C)
Relative Humidity: 52%
Pressure (altimeter): 29.85 in. Hg (1011 hPa)
ob: LFLB 241200Z AUTO 02006KT 340V060 9999 OVC056 19/09 Q1011 NOSIG
cycle: 12

Station Type Date Time Source
LFLB TAF 2022/05/24 09:22 UTC NOAA

TAF LFLB 240800Z 2409/2509 36006KT 9999 FEW030 BKN050
BECMG 2410/2412 SCT050

Example: see airport list